createdAt,value
2019-03-23T00:00:47.090Z,26.00
2019-03-23T00:01:47.072Z,29.00
2019-03-23T00:02:47.049Z,28.30
2019-03-23T00:03:47.036Z,26.90
2019-03-23T00:04:47.010Z,26.90
2019-03-23T00:05:46.989Z,29.20
2019-03-23T00:06:46.971Z,31.70
2019-03-23T00:07:46.950Z,29.50
2019-03-23T00:08:46.945Z,26.60
2019-03-23T00:09:46.916Z,27.50
2019-03-23T00:10:46.891Z,28.10
2019-03-23T00:11:46.868Z,28.60
2019-03-23T00:12:46.849Z,29.00
2019-03-23T00:13:46.834Z,29.70
2019-03-23T00:14:46.807Z,31.50
2019-03-23T00:15:46.793Z,29.30
2019-03-23T00:16:46.807Z,33.40
2019-03-23T00:17:46.774Z,31.90
2019-03-23T00:18:46.723Z,34.00
2019-03-23T00:19:46.704Z,34.50
2019-03-23T00:20:46.686Z,29.70
2019-03-23T00:21:46.662Z,37.00
2019-03-23T00:22:46.643Z,29.70
2019-03-23T00:23:46.634Z,34.40
2019-03-23T00:24:46.658Z,34.30
2019-03-23T00:25:46.593Z,31.50
2019-03-23T00:26:46.563Z,36.90
2019-03-23T00:27:46.541Z,32.30
2019-03-23T00:28:46.523Z,34.40
2019-03-23T00:29:46.507Z,37.10
2019-03-23T00:30:46.478Z,36.00
2019-03-23T00:31:46.468Z,42.20
2019-03-23T00:32:46.440Z,35.90
2019-03-23T00:33:46.416Z,38.20
2019-03-23T00:34:46.397Z,37.60
2019-03-23T00:35:46.376Z,43.10
2019-03-23T00:36:46.365Z,40.60
2019-03-23T00:37:46.343Z,43.30
2019-03-23T00:38:46.334Z,45.80
2019-03-23T00:39:46.294Z,44.70
2019-03-23T00:40:46.277Z,41.90
2019-03-23T00:41:46.252Z,48.10
2019-03-23T00:42:46.249Z,49.20
2019-03-23T00:43:46.221Z,45.20
2019-03-23T00:44:46.192Z,45.10
2019-03-23T00:45:46.172Z,50.70
2019-03-23T00:46:46.160Z,49.50
2019-03-23T00:47:46.130Z,47.30
2019-03-23T00:48:46.111Z,51.50
2019-03-23T00:49:46.098Z,52.20
2019-03-23T00:50:46.068Z,55.00
2019-03-23T00:51:46.051Z,50.80
2019-03-23T00:52:46.094Z,53.90
2019-03-23T00:53:46.006Z,48.00
2019-03-23T00:54:45.986Z,56.10
2019-03-23T00:55:45.966Z,58.80
2019-03-23T00:56:45.945Z,55.30
2019-03-23T00:57:45.923Z,57.00
2019-03-23T00:58:45.910Z,52.80
2019-03-23T00:59:45.898Z,57.80
2019-03-23T01:00:45.865Z,50.90
2019-03-23T01:01:45.842Z,53.80
2019-03-23T01:02:45.827Z,54.20
2019-03-23T01:03:45.808Z,58.30
2019-03-23T01:04:45.787Z,64.10
2019-03-23T01:05:45.766Z,61.10
2019-03-23T01:06:51.993Z,62.70
2019-03-23T01:07:45.725Z,61.10
2019-03-23T01:08:45.714Z,56.60
2019-03-23T01:09:45.674Z,61.50
2019-03-23T01:10:45.658Z,59.80
2019-03-23T01:11:45.685Z,60.30
2019-03-23T01:12:45.617Z,63.80
2019-03-23T01:13:45.592Z,58.60
2019-03-23T01:14:45.570Z,66.70
2019-03-23T01:15:45.554Z,67.10
2019-03-23T01:16:45.536Z,62.70
2019-03-23T01:17:45.507Z,64.40
2019-03-23T01:18:45.486Z,68.40
2019-03-23T01:19:45.476Z,68.70
2019-03-23T01:20:49.655Z,70.60
2019-03-23T01:21:45.423Z,68.20
2019-03-23T01:22:45.408Z,67.50
2019-03-23T01:23:45.381Z,72.60
2019-03-23T01:24:45.375Z,74.80
2019-03-23T01:25:45.349Z,73.30
2019-03-23T01:26:45.318Z,78.40
2019-03-23T01:27:45.299Z,78.40
2019-03-23T01:28:45.277Z,77.30
2019-03-23T01:29:45.256Z,80.80
2019-03-23T01:30:45.235Z,78.70
2019-03-23T01:31:45.216Z,80.40
2019-03-23T01:32:45.197Z,81.60
2019-03-23T01:33:45.172Z,84.60
2019-03-23T01:34:45.150Z,83.60
2019-03-23T01:35:45.136Z,86.10
2019-03-23T01:36:45.109Z,84.60
2019-03-23T01:37:45.090Z,83.70
2019-03-23T01:38:45.069Z,87.20
2019-03-23T01:39:45.053Z,89.90
2019-03-23T01:40:45.024Z,92.20
2019-03-23T01:41:45.003Z,84.00
2019-03-23T01:42:44.983Z,95.00
2019-03-23T01:43:44.960Z,91.10
2019-03-23T01:44:44.939Z,99.70
2019-03-23T01:45:44.925Z,99.30
2019-03-23T01:46:44.898Z,101.00
2019-03-23T01:47:44.876Z,101.00
2019-03-23T01:48:44.853Z,101.70
2019-03-23T01:49:44.831Z,108.10
2019-03-23T01:50:44.818Z,103.20
2019-03-23T01:51:44.790Z,111.30
2019-03-23T01:52:44.774Z,106.10
2019-03-23T01:53:44.746Z,96.70
2019-03-23T01:54:44.723Z,112.00
2019-03-23T01:55:44.712Z,111.70
2019-03-23T01:56:44.685Z,113.10
2019-03-23T01:57:44.670Z,108.50
2019-03-23T01:58:44.640Z,114.00
2019-03-23T01:59:44.622Z,113.50
2019-03-23T02:00:44.598Z,118.70
2019-03-23T02:01:44.574Z,120.60
2019-03-23T02:02:44.552Z,128.10
2019-03-23T02:03:44.532Z,125.30
2019-03-23T02:04:44.517Z,125.00
2019-03-23T02:05:44.490Z,124.00
2019-03-23T02:06:44.467Z,131.10
2019-03-23T02:07:44.444Z,122.00
2019-03-23T02:08:44.424Z,123.00
2019-03-23T02:09:44.400Z,121.30
2019-03-23T02:10:44.384Z,124.10
2019-03-23T02:11:44.360Z,123.90
2019-03-23T02:12:44.343Z,120.00
2019-03-23T02:13:44.321Z,126.80
2019-03-23T02:14:44.443Z,124.00
2019-03-23T02:15:44.270Z,119.00
2019-03-23T02:16:44.249Z,120.30
2019-03-23T02:17:44.225Z,123.60
2019-03-23T02:18:44.204Z,121.40
2019-03-23T02:19:44.183Z,117.10
2019-03-23T02:20:44.163Z,121.80
2019-03-23T02:21:44.148Z,118.10
2019-03-23T02:22:44.117Z,119.30
2019-03-23T02:23:44.094Z,118.90
2019-03-23T02:24:44.074Z,123.60
2019-03-23T02:25:44.056Z,118.20
2019-03-23T02:26:44.030Z,124.70
2019-03-23T02:27:44.016Z,125.30
2019-03-23T02:28:43.984Z,115.90
2019-03-23T02:29:43.965Z,120.40
2019-03-23T02:30:43.950Z,120.90
2019-03-23T02:31:43.917Z,116.80
2019-03-23T02:32:43.900Z,119.00
2019-03-23T02:33:43.882Z,120.20
2019-03-23T02:34:43.854Z,118.30
2019-03-23T02:35:43.834Z,118.00
2019-03-23T02:36:43.959Z,119.20
2019-03-23T02:37:43.790Z,122.90
2019-03-23T02:38:43.764Z,122.00
2019-03-23T02:39:43.742Z,130.60
2019-03-23T02:40:43.737Z,127.70
2019-03-23T02:41:43.700Z,126.50
2019-03-23T02:42:43.677Z,117.70
2019-03-23T02:43:43.658Z,118.60
2019-03-23T02:44:43.634Z,118.70
2019-03-23T02:45:43.609Z,125.90
2019-03-23T02:46:43.586Z,126.70
2019-03-23T02:47:43.570Z,117.50
2019-03-23T02:48:43.541Z,124.20
2019-03-23T02:49:43.525Z,121.10
2019-03-23T02:50:43.497Z,126.30
2019-03-23T02:51:43.486Z,122.70
2019-03-23T02:52:43.456Z,120.30
2019-03-23T02:53:43.432Z,126.00
2019-03-23T02:54:43.419Z,127.70
2019-03-23T02:55:43.387Z,119.40
2019-03-23T02:56:43.365Z,126.30
2019-03-23T02:57:43.344Z,120.30
2019-03-23T02:58:43.324Z,117.20
2019-03-23T02:59:43.300Z,125.70
2019-03-23T03:00:43.277Z,120.10
2019-03-23T03:01:43.255Z,125.90
2019-03-23T03:02:43.244Z,113.90
2019-03-23T03:03:43.219Z,121.00
2019-03-23T03:04:43.267Z,119.30
2019-03-23T03:05:43.168Z,126.30
2019-03-23T03:06:43.149Z,129.60
2019-03-23T03:07:43.958Z,116.00
2019-03-23T03:08:43.101Z,127.50
2019-03-23T03:09:43.078Z,123.80
2019-03-23T03:10:43.055Z,120.40
2019-03-23T03:11:43.081Z,129.40
2019-03-23T03:12:43.110Z,119.40
2019-03-23T03:13:42.995Z,127.30
2019-03-23T03:14:42.965Z,121.40
2019-03-23T03:15:42.954Z,122.40
2019-03-23T03:16:42.920Z,127.10
2019-03-23T03:17:42.897Z,131.60
2019-03-23T03:18:42.876Z,127.00
2019-03-23T03:19:42.854Z,124.10
2019-03-23T03:20:42.853Z,126.90
2019-03-23T03:21:42.813Z,134.00
2019-03-23T03:22:42.799Z,134.20
2019-03-23T03:23:42.766Z,129.90
2019-03-23T03:24:42.744Z,129.20
2019-03-23T03:25:42.717Z,129.40
2019-03-23T03:26:42.713Z,133.20
2019-03-23T03:27:42.674Z,135.60
2019-03-23T03:28:42.652Z,136.00
2019-03-23T03:29:42.626Z,140.30
2019-03-23T03:30:42.626Z,133.70
2019-03-23T03:31:42.584Z,138.10
2019-03-23T03:32:42.561Z,136.50
2019-03-23T03:33:42.536Z,137.50
2019-03-23T03:34:42.515Z,130.60
2019-03-23T03:35:42.491Z,138.60
2019-03-23T03:36:42.469Z,145.00
2019-03-23T03:37:55.859Z,138.10
2019-03-23T03:38:42.423Z,144.70
2019-03-23T03:39:42.417Z,139.90
2019-03-23T03:40:42.390Z,137.90
2019-03-23T03:41:42.372Z,140.70
2019-03-23T03:42:42.331Z,143.20
2019-03-23T03:43:42.307Z,136.30
2019-03-23T03:44:42.285Z,146.70
2019-03-23T03:45:42.374Z,142.40
2019-03-23T03:46:42.241Z,149.40
2019-03-23T03:47:42.224Z,144.10
2019-03-23T03:48:42.196Z,152.20
2019-03-23T03:49:42.182Z,139.70
2019-03-23T03:50:42.155Z,139.70
2019-03-23T03:51:42.131Z,139.80
2019-03-23T03:52:42.103Z,141.40
2019-03-23T03:53:42.081Z,142.40
2019-03-23T03:54:42.065Z,142.80
2019-03-23T03:55:42.036Z,147.40
2019-03-23T03:56:42.022Z,147.50
2019-03-23T03:57:41.989Z,147.70
2019-03-23T03:58:41.988Z,138.50
2019-03-23T03:59:41.944Z,152.40
2019-03-23T04:00:41.948Z,147.50
2019-03-23T04:01:41.896Z,154.10
2019-03-23T04:02:41.878Z,150.20
2019-03-23T04:03:41.859Z,148.10
2019-03-23T04:04:41.833Z,149.40
2019-03-23T04:05:41.809Z,148.30
2019-03-23T04:06:41.790Z,152.90
2019-03-23T04:07:41.763Z,147.30
2019-03-23T04:08:41.750Z,152.50
2019-03-23T04:09:41.717Z,152.40
2019-03-23T04:10:41.711Z,161.80
2019-03-23T04:11:41.680Z,158.30
2019-03-23T04:12:41.648Z,159.50
2019-03-23T04:13:41.624Z,162.80
2019-03-23T04:14:41.602Z,158.80
2019-03-23T04:15:41.579Z,154.20
2019-03-23T04:16:41.559Z,159.70
2019-03-23T04:17:41.532Z,151.90
2019-03-23T04:18:41.519Z,159.40
2019-03-23T04:19:41.489Z,154.80
2019-03-23T04:20:41.484Z,154.50
2019-03-23T04:21:41.442Z,162.40
2019-03-23T04:22:41.422Z,151.60
2019-03-23T04:23:41.398Z,167.00
2019-03-23T04:24:41.374Z,162.10
2019-03-23T04:25:41.350Z,168.00
2019-03-23T04:26:41.335Z,170.70
2019-03-23T04:27:41.306Z,176.60
2019-03-23T04:28:41.283Z,174.20
2019-03-23T04:29:41.260Z,161.90
2019-03-23T04:30:41.246Z,163.50
2019-03-23T04:31:41.214Z,168.70
2019-03-23T04:32:41.197Z,173.50
2019-03-23T04:33:41.177Z,171.20
2019-03-23T04:34:41.145Z,162.70
2019-03-23T04:35:41.122Z,166.40
2019-03-23T04:36:41.101Z,165.20
2019-03-23T04:37:41.077Z,170.90
2019-03-23T04:38:41.052Z,169.70
2019-03-23T04:39:41.033Z,172.60
2019-03-23T04:40:41.007Z,166.00
2019-03-23T04:41:40.989Z,172.10
2019-03-23T04:42:40.968Z,170.00
2019-03-23T04:43:40.940Z,161.70
2019-03-23T04:44:40.926Z,169.20
2019-03-23T04:45:40.895Z,161.30
2019-03-23T04:46:40.871Z,159.60
2019-03-23T04:47:40.847Z,161.40
2019-03-23T04:48:40.825Z,151.80
2019-03-23T04:49:40.800Z,161.30
2019-03-23T04:50:40.777Z,166.20
2019-03-23T04:51:40.762Z,155.50
2019-03-23T04:52:40.732Z,167.10
2019-03-23T04:53:40.713Z,160.60
2019-03-23T04:54:40.686Z,152.60
2019-03-23T04:55:40.665Z,165.40
2019-03-23T04:56:40.639Z,162.20
2019-03-23T04:57:40.625Z,161.40
2019-03-23T04:58:40.597Z,168.10
2019-03-23T04:59:40.573Z,166.00
2019-03-23T05:00:40.549Z,163.10
2019-03-23T05:01:40.526Z,161.40
2019-03-23T05:02:40.501Z,157.40
2019-03-23T05:03:40.481Z,153.30
2019-03-23T05:04:40.459Z,166.10
2019-03-23T05:05:40.436Z,160.50
2019-03-23T05:06:42.513Z,166.50
2019-03-23T05:07:40.388Z,158.90
2019-03-23T05:08:40.371Z,164.30
2019-03-23T05:09:40.341Z,165.20
2019-03-23T05:10:40.320Z,150.90
2019-03-23T05:11:40.298Z,156.00
2019-03-23T05:12:40.278Z,159.30
2019-03-23T05:13:40.258Z,159.60
2019-03-23T05:14:40.227Z,163.70
2019-03-23T05:15:40.213Z,148.90
2019-03-23T05:16:40.182Z,157.70
2019-03-23T05:17:40.158Z,159.20
2019-03-23T05:18:40.144Z,154.40
2019-03-23T05:19:40.113Z,155.30
2019-03-23T05:20:40.092Z,158.40
2019-03-23T05:21:40.067Z,155.80
2019-03-23T05:22:40.054Z,152.40
2019-03-23T05:23:40.025Z,159.50
2019-03-23T05:24:40.002Z,157.70
2019-03-23T05:25:39.985Z,155.20
2019-03-23T05:26:39.953Z,159.40
2019-03-23T05:27:39.930Z,158.30
2019-03-23T05:28:39.908Z,151.40
2019-03-23T05:29:39.883Z,158.90
2019-03-23T05:30:39.866Z,149.80
2019-03-23T05:31:39.853Z,157.80
2019-03-23T05:32:39.816Z,156.50
2019-03-23T05:33:39.793Z,145.50
2019-03-23T05:34:39.778Z,159.50
2019-03-23T05:35:39.758Z,138.10
2019-03-23T05:36:39.725Z,159.80
2019-03-23T05:37:39.701Z,154.50
2019-03-23T05:38:44.321Z,152.80
2019-03-23T05:39:39.682Z,161.90
2019-03-23T05:40:39.634Z,155.80
2019-03-23T05:41:39.608Z,155.20
2019-03-23T05:42:39.586Z,154.70
2019-03-23T05:43:39.566Z,149.90
2019-03-23T05:44:39.542Z,162.90
2019-03-23T05:45:39.517Z,153.70
2019-03-23T05:46:39.496Z,154.70
2019-03-23T05:47:39.476Z,157.00
2019-03-23T05:48:39.451Z,161.50
2019-03-23T05:49:39.427Z,155.00
2019-03-23T05:50:39.413Z,156.10
2019-03-23T05:51:39.383Z,160.00
2019-03-23T05:52:39.358Z,148.80
2019-03-23T05:53:39.338Z,154.10
2019-03-23T05:54:39.312Z,149.00
2019-03-23T05:55:39.290Z,156.10
2019-03-23T05:56:39.285Z,153.40
2019-03-23T05:57:39.242Z,154.70
2019-03-23T05:58:39.225Z,151.70
2019-03-23T05:59:39.209Z,160.80
2019-03-23T06:00:39.178Z,162.20
2019-03-23T06:01:39.166Z,153.90
2019-03-23T06:02:39.128Z,150.90
2019-03-23T06:03:39.105Z,153.40
2019-03-23T06:04:39.087Z,157.60
2019-03-23T06:05:39.060Z,152.30
2019-03-23T06:06:39.037Z,159.90
2019-03-23T06:07:39.017Z,158.00
2019-03-23T06:08:39.001Z,151.00
2019-03-23T06:09:38.979Z,154.00
2019-03-23T06:10:38.955Z,154.50
2019-03-23T06:11:38.923Z,154.90
2019-03-23T06:12:38.904Z,156.90
2019-03-23T06:13:38.877Z,155.10
2019-03-23T06:14:38.855Z,179.00
2019-03-23T06:15:38.840Z,171.90
2019-03-23T06:16:38.810Z,161.20
2019-03-23T06:17:38.785Z,164.50
2019-03-23T06:18:38.768Z,155.70
2019-03-23T06:19:38.750Z,161.00
2019-03-23T06:20:38.718Z,159.60
2019-03-23T06:21:38.698Z,164.60
2019-03-23T06:22:38.673Z,154.20
2019-03-23T06:23:38.650Z,160.80
2019-03-23T06:24:38.634Z,159.50
2019-03-23T06:25:38.605Z,154.60
2019-03-23T06:26:38.585Z,163.40
2019-03-23T06:27:38.567Z,155.70
2019-03-23T06:28:38.545Z,154.10
2019-03-23T06:29:38.513Z,158.30
2019-03-23T06:30:38.501Z,154.30
2019-03-23T06:31:38.468Z,158.30
2019-03-23T06:32:38.449Z,163.40
2019-03-23T06:33:38.424Z,175.40
2019-03-23T06:34:38.401Z,169.70
2019-03-23T06:35:38.378Z,165.70
2019-03-23T06:36:38.356Z,159.60
2019-03-23T06:37:38.340Z,172.10
2019-03-23T06:38:38.320Z,168.40
2019-03-23T06:39:38.390Z,163.20
2019-03-23T06:40:38.273Z,169.00
2019-03-23T06:41:38.242Z,169.80
2019-03-23T06:42:38.274Z,164.00
2019-03-23T06:43:38.219Z,175.00
2019-03-23T06:44:38.174Z,159.40
2019-03-23T06:45:38.161Z,164.80
2019-03-23T06:46:38.128Z,170.30
2019-03-23T06:47:38.113Z,173.40
2019-03-23T06:48:38.092Z,162.80
2019-03-23T06:49:38.060Z,169.50
2019-03-23T06:50:38.097Z,160.90
2019-03-23T06:51:38.015Z,171.20
2019-03-23T06:52:37.994Z,171.10
2019-03-23T06:53:37.970Z,171.50
2019-03-23T06:54:37.951Z,164.20
2019-03-23T06:55:37.932Z,170.70
2019-03-23T06:56:37.908Z,169.80
2019-03-23T06:57:37.882Z,171.50
2019-03-23T06:58:38.651Z,163.30
2019-03-23T06:59:37.840Z,167.10
2019-03-23T07:00:37.811Z,168.30
2019-03-23T07:01:37.792Z,173.80
2019-03-23T07:02:37.768Z,167.20
2019-03-23T07:03:37.752Z,172.50
2019-03-23T07:04:37.725Z,160.50
2019-03-23T07:05:37.704Z,164.10
2019-03-23T07:06:37.677Z,159.10
2019-03-23T07:07:37.654Z,166.70
2019-03-23T07:08:37.632Z,173.60
2019-03-23T07:09:37.625Z,184.30
2019-03-23T07:10:37.585Z,172.00
2019-03-23T07:11:37.572Z,177.00
2019-03-23T07:12:37.542Z,179.20
2019-03-23T07:13:37.528Z,167.50
2019-03-23T07:14:37.515Z,173.10
2019-03-23T07:15:37.485Z,178.50
2019-03-23T07:16:37.455Z,167.10
2019-03-23T07:17:37.428Z,176.00
2019-03-23T07:18:37.413Z,171.90
2019-03-23T07:19:37.385Z,163.00
2019-03-23T07:20:37.369Z,168.90
2019-03-23T07:21:37.339Z,157.60
2019-03-23T07:22:37.327Z,161.60
2019-03-23T07:23:37.303Z,155.10
2019-03-23T07:24:37.273Z,156.00
2019-03-23T07:25:37.252Z,151.40
2019-03-23T07:26:37.226Z,146.80
2019-03-23T07:27:37.206Z,156.90
2019-03-23T07:28:37.182Z,149.90
2019-03-23T07:29:37.159Z,154.40
2019-03-23T07:30:37.143Z,156.70
2019-03-23T07:31:37.124Z,161.60
2019-03-23T07:32:37.093Z,160.00
2019-03-23T07:33:37.070Z,151.40
2019-03-23T07:34:37.052Z,154.20
2019-03-23T07:35:37.027Z,152.20
2019-03-23T07:36:37.004Z,154.00
2019-03-23T07:37:36.984Z,158.70
2019-03-23T07:38:36.971Z,159.20
2019-03-23T07:39:36.937Z,153.60
2019-03-23T07:40:36.916Z,156.10
2019-03-23T07:41:36.892Z,154.80
2019-03-23T07:42:36.871Z,158.30
2019-03-23T07:43:36.849Z,151.30
2019-03-23T07:44:36.828Z,146.40
2019-03-23T07:45:36.911Z,138.30
2019-03-23T07:46:36.782Z,145.60
2019-03-23T07:47:36.761Z,141.80
2019-03-23T07:48:36.746Z,141.90
2019-03-23T07:49:36.727Z,139.90
2019-03-23T07:50:36.698Z,142.80
2019-03-23T07:51:36.683Z,144.50
2019-03-23T07:52:36.651Z,142.00
2019-03-23T07:53:36.637Z,139.10
2019-03-23T07:54:36.617Z,131.10
2019-03-23T07:55:36.584Z,133.80
2019-03-23T07:56:36.563Z,146.10
2019-03-23T07:57:36.550Z,139.10
2019-03-23T07:58:36.519Z,140.40
2019-03-23T07:59:36.505Z,137.80
2019-03-23T08:00:36.475Z,147.80
2019-03-23T08:01:36.481Z,139.00
2019-03-23T08:02:36.440Z,147.30
2019-03-23T08:03:36.418Z,129.30
2019-03-23T08:04:36.389Z,140.70
2019-03-23T08:05:36.369Z,127.40
2019-03-23T08:06:36.352Z,139.70
2019-03-23T08:07:36.742Z,136.80
2019-03-23T08:08:36.303Z,132.40
2019-03-23T08:09:37.882Z,130.10
2019-03-23T08:10:36.273Z,128.60
2019-03-23T08:11:36.237Z,129.70
2019-03-23T08:12:36.217Z,126.60
2019-03-23T08:13:36.201Z,120.60
2019-03-23T08:14:36.319Z,124.60
2019-03-23T08:15:36.152Z,123.40
2019-03-23T08:16:36.131Z,129.30
2019-03-23T08:17:36.108Z,127.70
2019-03-23T08:18:36.086Z,121.50
2019-03-23T08:19:36.064Z,126.70
2019-03-23T08:20:36.043Z,124.50
2019-03-23T08:21:36.031Z,119.20
2019-03-23T08:22:36.015Z,128.70
2019-03-23T08:23:35.978Z,126.70
2019-03-23T08:24:35.959Z,120.30
2019-03-23T08:25:35.935Z,121.40
2019-03-23T08:26:35.913Z,121.00
2019-03-23T08:27:35.891Z,124.50
2019-03-23T08:28:35.871Z,120.00
2019-03-23T08:29:35.847Z,127.40
2019-03-23T08:30:35.827Z,114.00
2019-03-23T08:31:35.821Z,124.90
2019-03-23T08:32:35.790Z,123.20
2019-03-23T08:33:35.762Z,119.80
2019-03-23T08:34:35.740Z,119.60
2019-03-23T08:35:35.719Z,126.70
2019-03-23T08:36:35.706Z,122.20
2019-03-23T08:37:35.677Z,120.90
2019-03-23T08:38:35.655Z,121.90
2019-03-23T08:39:35.640Z,118.90
2019-03-23T08:40:35.980Z,121.90
2019-03-23T08:41:35.599Z,119.70
2019-03-23T08:42:35.590Z,117.50
2019-03-23T08:43:35.552Z,112.60
2019-03-23T08:44:35.531Z,110.60
2019-03-23T08:45:35.506Z,112.00
2019-03-23T08:46:35.492Z,116.30
2019-03-23T08:47:35.468Z,118.50
2019-03-23T08:48:35.444Z,117.20
2019-03-23T08:49:35.429Z,122.50
2019-03-23T08:50:35.403Z,118.40
2019-03-23T08:51:35.384Z,116.80
2019-03-23T08:52:35.357Z,118.30
2019-03-23T08:53:35.340Z,113.00
2019-03-23T08:54:35.323Z,111.00
2019-03-23T08:55:35.302Z,107.40
2019-03-23T08:56:37.403Z,115.50
2019-03-23T08:57:35.261Z,117.90
2019-03-23T08:58:35.244Z,115.30
2019-03-23T08:59:35.219Z,112.40
2019-03-23T09:00:35.188Z,113.00
2019-03-23T09:01:35.170Z,111.00
2019-03-23T09:02:35.334Z,105.10
2019-03-23T09:03:35.132Z,103.90
2019-03-23T09:04:35.106Z,107.50
2019-03-23T09:05:35.083Z,111.80
2019-03-23T09:06:35.067Z,107.50
2019-03-23T09:07:35.043Z,114.30
2019-03-23T09:08:35.028Z,112.50
2019-03-23T09:09:35.011Z,107.90
2019-03-23T09:10:34.980Z,103.30
2019-03-23T09:11:34.959Z,103.60
2019-03-23T09:12:34.948Z,101.50
2019-03-23T09:13:40.535Z,109.00
2019-03-23T09:14:34.913Z,105.70
2019-03-23T09:15:34.886Z,108.10
2019-03-23T09:16:34.865Z,105.20
2019-03-23T09:17:34.834Z,105.40
2019-03-23T09:18:34.823Z,104.40
2019-03-23T09:19:34.797Z,103.60
2019-03-23T09:20:34.782Z,103.70
2019-03-23T09:21:34.778Z,102.10
2019-03-23T09:22:34.735Z,97.10
2019-03-23T09:23:34.722Z,103.50
2019-03-23T09:24:34.693Z,99.20
2019-03-23T09:25:34.673Z,100.70
2019-03-23T09:26:34.663Z,96.10
2019-03-23T09:27:34.633Z,97.90
2019-03-23T09:28:34.612Z,103.30
2019-03-23T09:29:34.637Z,101.70
2019-03-23T09:30:34.574Z,94.10
2019-03-23T09:31:34.558Z,98.40
2019-03-23T09:32:34.549Z,94.30
2019-03-23T09:33:34.517Z,97.50
2019-03-23T09:34:34.493Z,92.80
2019-03-23T09:35:34.522Z,94.40
2019-03-23T09:36:34.454Z,94.60
2019-03-23T09:37:38.043Z,92.80
2019-03-23T09:38:34.419Z,94.10
2019-03-23T09:39:34.396Z,91.10
2019-03-23T09:40:34.374Z,93.40
2019-03-23T09:41:34.402Z,92.50
2019-03-23T09:42:34.334Z,88.30
2019-03-23T09:43:34.314Z,93.80
2019-03-23T09:44:34.298Z,91.70
2019-03-23T09:45:34.275Z,97.30
2019-03-23T09:46:34.261Z,94.40
2019-03-23T09:47:34.243Z,92.90
2019-03-23T09:48:34.227Z,92.20
2019-03-23T09:49:34.205Z,91.00
2019-03-23T09:50:34.193Z,86.30
2019-03-23T09:51:34.158Z,89.70
2019-03-23T09:52:34.140Z,95.10
2019-03-23T09:53:34.128Z,94.60
2019-03-23T09:54:34.109Z,92.70
2019-03-23T09:55:34.080Z,89.60
2019-03-23T09:56:34.063Z,90.40
2019-03-23T09:57:34.042Z,91.00
2019-03-23T09:58:34.028Z,92.00
2019-03-23T09:59:34.006Z,92.30
2019-03-23T10:00:34.000Z,85.90
2019-03-23T10:01:33.976Z,85.90
2019-03-23T10:02:33.954Z,92.00
2019-03-23T10:03:33.931Z,86.50
2019-03-23T10:04:33.911Z,95.90
2019-03-23T10:05:33.894Z,92.60
2019-03-23T10:06:33.875Z,88.50
2019-03-23T10:07:33.856Z,91.00
2019-03-23T10:08:33.839Z,92.60
2019-03-23T10:09:33.837Z,87.30
2019-03-23T10:10:33.809Z,87.50
2019-03-23T10:11:33.792Z,88.00
2019-03-23T10:12:33.765Z,92.40
2019-03-23T10:13:33.754Z,83.80
2019-03-23T10:14:33.728Z,77.60
2019-03-23T10:15:33.711Z,77.50
2019-03-23T10:16:33.702Z,80.00
2019-03-23T10:17:33.672Z,84.10
2019-03-23T10:18:33.655Z,78.70
2019-03-23T10:19:33.649Z,80.20
2019-03-23T10:20:33.621Z,77.80
2019-03-23T10:21:33.608Z,82.00
2019-03-23T10:22:33.591Z,75.90
2019-03-23T10:23:33.566Z,81.50
2019-03-23T10:24:33.563Z,85.50
2019-03-23T10:25:33.528Z,87.30
2019-03-23T10:26:33.521Z,80.70
2019-03-23T10:27:33.501Z,89.90
2019-03-23T10:28:33.481Z,83.40
2019-03-23T10:29:33.457Z,84.90
2019-03-23T10:30:33.443Z,84.00
2019-03-23T10:31:33.421Z,82.20
2019-03-23T10:32:33.403Z,82.40
2019-03-23T10:33:33.395Z,82.20
2019-03-23T10:34:33.368Z,82.20
2019-03-23T10:35:33.362Z,86.30
2019-03-23T10:36:33.334Z,84.40
2019-03-23T10:37:33.320Z,84.20
2019-03-23T10:38:33.296Z,83.30
2019-03-23T10:39:33.280Z,76.70
2019-03-23T10:40:33.294Z,76.10
2019-03-23T10:41:33.242Z,82.00
2019-03-23T10:42:33.245Z,90.10
2019-03-23T10:43:33.208Z,82.20
2019-03-23T10:44:33.190Z,81.70
2019-03-23T10:45:40.053Z,86.50
2019-03-23T10:46:33.165Z,78.80
2019-03-23T10:47:33.198Z,77.00
2019-03-23T10:48:33.123Z,79.40
2019-03-23T10:49:33.103Z,78.70
2019-03-23T10:50:33.095Z,79.60
2019-03-23T10:51:33.089Z,75.40
2019-03-23T10:52:33.057Z,83.70
2019-03-23T10:53:33.043Z,79.90
2019-03-23T10:54:33.028Z,75.70
2019-03-23T10:55:33.004Z,79.00
2019-03-23T10:56:32.993Z,73.70
2019-03-23T10:57:32.982Z,77.90
2019-03-23T10:58:32.962Z,75.90
2019-03-23T10:59:32.951Z,74.70
2019-03-23T11:00:32.933Z,81.10
2019-03-23T11:01:32.912Z,78.80
2019-03-23T11:02:32.895Z,75.60
2019-03-23T11:03:32.881Z,73.00
2019-03-23T11:04:32.872Z,70.80
2019-03-23T11:05:32.849Z,69.50
2019-03-23T11:06:32.832Z,72.00
2019-03-23T11:07:32.824Z,67.00
2019-03-23T11:08:32.803Z,70.00
2019-03-23T11:09:32.789Z,70.20
2019-03-23T11:10:41.530Z,73.60
2019-03-23T11:11:32.769Z,78.60
2019-03-23T11:12:32.751Z,71.10
2019-03-23T11:13:32.729Z,75.80
2019-03-23T11:14:32.713Z,74.00
2019-03-23T11:15:32.701Z,74.20
2019-03-23T11:16:32.682Z,71.20
2019-03-23T11:17:32.665Z,74.10
2019-03-23T11:18:32.649Z,71.60
2019-03-23T11:19:32.639Z,73.50
2019-03-23T11:20:32.621Z,73.40
2019-03-23T11:21:32.602Z,75.30
2019-03-23T11:22:32.589Z,78.00
2019-03-23T11:23:32.569Z,74.20
2019-03-23T11:24:32.555Z,75.10
2019-03-23T11:25:32.536Z,69.10
2019-03-23T11:26:32.525Z,72.40
2019-03-23T11:27:32.521Z,71.30
2019-03-23T11:28:32.522Z,74.60
2019-03-23T11:29:32.484Z,70.50
2019-03-23T11:30:32.456Z,77.30
2019-03-23T11:31:32.482Z,77.30
2019-03-23T11:32:32.427Z,73.10
2019-03-23T11:33:32.408Z,77.00
2019-03-23T11:34:32.393Z,76.60
2019-03-23T11:35:32.376Z,74.20
2019-03-23T11:36:32.362Z,71.90
2019-03-23T11:37:32.395Z,69.50
2019-03-23T11:38:32.330Z,73.50
2019-03-23T11:39:32.307Z,68.90
2019-03-23T11:40:32.314Z,74.90
2019-03-23T11:41:32.275Z,72.80
2019-03-23T11:42:32.259Z,72.70
2019-03-23T11:43:32.242Z,72.70
2019-03-23T11:44:32.226Z,77.40
2019-03-23T11:45:32.208Z,71.40
2019-03-23T11:46:32.191Z,73.20
2019-03-23T11:47:32.189Z,79.70
2019-03-23T11:48:32.160Z,74.00
2019-03-23T11:49:32.140Z,72.90
2019-03-23T11:50:32.150Z,74.00
2019-03-23T11:51:32.109Z,75.60
2019-03-23T11:52:32.092Z,75.70
2019-03-23T11:53:32.074Z,75.00
2019-03-23T11:54:32.061Z,69.80
2019-03-23T11:55:32.042Z,82.20
2019-03-23T11:56:32.026Z,69.70
2019-03-23T11:57:32.020Z,74.10
2019-03-23T11:58:32.013Z,72.20
2019-03-23T11:59:31.977Z,69.90
2019-03-23T12:00:31.961Z,68.70
2019-03-23T12:01:31.951Z,67.30
2019-03-23T12:02:31.936Z,70.50
2019-03-23T12:03:31.919Z,69.10
2019-03-23T12:04:31.899Z,72.10
2019-03-23T12:05:31.876Z,70.10
2019-03-23T12:06:31.870Z,72.90
2019-03-23T12:07:31.851Z,68.00
2019-03-23T12:08:31.827Z,67.40
2019-03-23T12:09:31.818Z,65.80
2019-03-23T12:10:31.800Z,65.90
2019-03-23T12:11:31.779Z,71.50
2019-03-23T12:12:31.771Z,69.00
2019-03-23T12:13:31.744Z,70.10
2019-03-23T12:14:31.737Z,73.80
2019-03-23T12:15:31.769Z,67.60
2019-03-23T12:16:31.698Z,71.60
2019-03-23T12:17:31.691Z,73.80
2019-03-23T12:18:31.682Z,73.30
2019-03-23T12:19:31.655Z,69.30
2019-03-23T12:20:31.640Z,69.80
2019-03-23T12:21:31.616Z,69.80
2019-03-23T12:22:31.599Z,69.70
2019-03-23T12:23:31.590Z,67.30
2019-03-23T12:24:31.574Z,68.10
2019-03-23T12:25:31.550Z,71.90
2019-03-23T12:26:31.538Z,71.30
2019-03-23T12:27:31.529Z,73.50
2019-03-23T12:28:31.518Z,72.40
2019-03-23T12:29:31.492Z,77.40
2019-03-23T12:30:31.472Z,74.60
2019-03-23T12:31:31.466Z,72.20
2019-03-23T12:32:31.439Z,74.00
2019-03-23T12:33:31.444Z,68.40
2019-03-23T12:34:31.413Z,71.50
2019-03-23T12:35:31.398Z,71.90
2019-03-23T12:36:31.374Z,72.80
2019-03-23T12:37:31.369Z,71.10